sensor_id;sensor_type;location;lat;lon;timestamp;pressure;altitude;pressure_sealevel;temperature;humidity
7109;BME280;29079;41.930;25.558;2023-04-05T00:00:56;98912.66;;;5.86;98.11
7109;BME280;29079;41.930;25.558;2023-04-05T00:03:29;98916.16;;;5.98;96.82
7109;BME280;29079;41.930;25.558;2023-04-05T00:06:03;98913.00;;;5.93;99.49
7109;BME280;29079;41.930;25.558;2023-04-05T00:08:36;98924.19;;;5.97;97.49
7109;BME280;29079;41.930;25.558;2023-04-05T00:11:11;98913.72;;;5.95;97.05
7109;BME280;29079;41.930;25.558;2023-04-05T00:13:45;98910.63;;;5.45;96.24
7109;BME280;29079;41.930;25.558;2023-04-05T00:16:18;98911.47;;;5.68;96.66
7109;BME280;29079;41.930;25.558;2023-04-05T00:18:52;98916.28;;;6.08;97.25
7109;BME280;29079;41.930;25.558;2023-04-05T00:21:26;98915.03;;;5.44;94.93
7109;BME280;29079;41.930;25.558;2023-04-05T00:23:59;98909.16;;;5.74;94.98
7109;BME280;29079;41.930;25.558;2023-04-05T00:26:34;98908.78;;;5.90;95.61
7109;BME280;29079;41.930;25.558;2023-04-05T00:29:07;98916.63;;;5.92;94.47
7109;BME280;29079;41.930;25.558;2023-04-05T00:31:40;98918.06;;;5.96;95.24
7109;BME280;29079;41.930;25.558;2023-04-05T00:34:14;98920.59;;;5.75;95.40
7109;BME280;29079;41.930;25.558;2023-04-05T00:36:47;98929.63;;;5.61;95.43
7109;BME280;29079;41.930;25.558;2023-04-05T00:39:20;98927.72;;;5.86;95.72
7109;BME280;29079;41.930;25.558;2023-04-05T00:41:55;98926.97;;;5.50;94.44
7109;BME280;29079;41.930;25.558;2023-04-05T00:44:28;98929.13;;;5.56;93.74
7109;BME280;29079;41.930;25.558;2023-04-05T00:47:05;98931.56;;;5.82;94.63
7109;BME280;29079;41.930;25.558;2023-04-05T00:49:38;98937.56;;;5.84;92.64
7109;BME280;29079;41.930;25.558;2023-04-05T00:52:12;98935.88;;;5.71;92.55
7109;BME280;29079;41.930;25.558;2023-04-05T00:54:45;98934.44;;;5.90;95.34
7109;BME280;29079;41.930;25.558;2023-04-05T00:57:20;98933.03;;;5.97;91.89
7109;BME280;29079;41.930;25.558;2023-04-05T00:59:53;98936.28;;;6.01;92.16
7109;BME280;29079;41.930;25.558;2023-04-05T01:02:27;98932.88;;;5.76;95.04
7109;BME280;29079;41.930;25.558;2023-04-05T01:05:03;98930.00;;;5.56;92.82
7109;BME280;29079;41.930;25.558;2023-04-05T01:07:41;98929.63;;;5.84;92.42
7109;BME280;29079;41.930;25.558;2023-04-05T01:10:18;98932.66;;;6.02;92.34
7109;BME280;29079;41.930;25.558;2023-04-05T01:12:56;98931.91;;;5.54;91.48
7109;BME280;29079;41.930;25.558;2023-04-05T01:15:30;98929.63;;;5.61;92.09
7109;BME280;29079;41.930;25.558;2023-04-05T01:18:03;98941.19;;;5.71;94.32
7109;BME280;29079;41.930;25.558;2023-04-05T01:20:37;98936.13;;;5.80;91.34
7109;BME280;29079;41.930;25.558;2023-04-05T01:23:20;98927.69;;;5.74;92.79
7109;BME280;29079;41.930;25.558;2023-04-05T01:26:21;98933.63;;;5.78;92.52
7109;BME280;29079;41.930;25.558;2023-04-05T01:31:44;98938.72;;;5.23;92.40
7109;BME280;29079;41.930;25.558;2023-04-05T01:34:19;98931.53;;;5.48;93.74
7109;BME280;29079;41.930;25.558;2023-04-05T01:37:00;98940.91;;;5.29;93.07
7109;BME280;29079;41.930;25.558;2023-04-05T01:39:33;98945.16;;;5.66;93.95
7109;BME280;29079;41.930;25.558;2023-04-05T01:42:07;98941.41;;;5.46;93.13
7109;BME280;29079;41.930;25.558;2023-04-05T01:44:40;98946.13;;;5.53;92.91
7109;BME280;29079;41.930;25.558;2023-04-05T01:47:14;98947.78;;;5.54;92.41
7109;BME280;29079;41.930;25.558;2023-04-05T01:49:47;98946.63;;;5.12;92.51
7109;BME280;29079;41.930;25.558;2023-04-05T01:52:21;98948.50;;;5.45;95.79
7109;BME280;29079;41.930;25.558;2023-04-05T01:54:53;98954.91;;;5.65;94.17
7109;BME280;29079;41.930;25.558;2023-04-05T01:57:26;98961.41;;;5.61;92.87
7109;BME280;29079;41.930;25.558;2023-04-05T02:00:00;98962.84;;;5.88;96.66
7109;BME280;29079;41.930;25.558;2023-04-05T02:02:34;98961.50;;;5.82;92.85
7109;BME280;29079;41.930;25.558;2023-04-05T02:05:08;98955.50;;;5.46;92.61
7109;BME280;29079;41.930;25.558;2023-04-05T02:07:41;98952.34;;;5.52;94.78
7109;BME280;29079;41.930;25.558;2023-04-05T02:10:14;98951.53;;;5.74;94.90
7109;BME280;29079;41.930;25.558;2023-04-05T02:12:48;98958.50;;;5.53;92.71
7109;BME280;29079;41.930;25.558;2023-04-05T02:15:21;98963.81;;;5.64;94.89
7109;BME280;29079;41.930;25.558;2023-04-05T02:17:56;98967.53;;;5.62;94.86
7109;BME280;29079;41.930;25.558;2023-04-05T02:20:33;98961.88;;;5.55;92.42
7109;BME280;29079;41.930;25.558;2023-04-05T02:23:06;98968.19;;;5.30;92.92
7109;BME280;29079;41.930;25.558;2023-04-05T02:25:39;98975.41;;;5.28;92.86
7109;BME280;29079;41.930;25.558;2023-04-05T02:28:12;98967.25;;;5.42;92.86
7109;BME280;29079;41.930;25.558;2023-04-05T02:30:45;98979.00;;;5.27;91.26
7109;BME280;29079;41.930;25.558;2023-04-05T02:33:20;98982.84;;;5.22;94.54
7109;BME280;29079;41.930;25.558;2023-04-05T02:35:54;98981.00;;;5.58;93.25
7109;BME280;29079;41.930;25.558;2023-04-05T02:38:27;98978.72;;;5.54;93.24
7109;BME280;29079;41.930;25.558;2023-04-05T02:41:01;98983.53;;;5.71;94.78
7109;BME280;29079;41.930;25.558;2023-04-05T02:43:34;98987.59;;;5.53;92.54
7109;BME280;29079;41.930;25.558;2023-04-05T02:46:07;98994.28;;;5.23;93.42
7109;BME280;29079;41.930;25.558;2023-04-05T02:48:42;98988.78;;;5.49;93.69
7109;BME280;29079;41.930;25.558;2023-04-05T02:51:15;98994.09;;;5.60;91.91
7109;BME280;29079;41.930;25.558;2023-04-05T02:53:48;98995.56;;;5.64;93.96
7109;BME280;29079;41.930;25.558;2023-04-05T02:56:21;98998.03;;;5.32;91.07
7109;BME280;29079;41.930;25.558;2023-04-05T02:58:54;98998.78;;;5.45;92.62
7109;BME280;29079;41.930;25.558;2023-04-05T03:01:27;99003.81;;;5.01;92.10
7109;BME280;29079;41.930;25.558;2023-04-05T03:04:02;99003.09;;;5.35;92.60
7109;BME280;29079;41.930;25.558;2023-04-05T03:06:36;99008.28;;;5.12;93.02
7109;BME280;29079;41.930;25.558;2023-04-05T03:09:09;99007.06;;;5.40;95.04
7109;BME280;29079;41.930;25.558;2023-04-05T03:11:43;99012.44;;;5.28;92.83
7109;BME280;29079;41.930;25.558;2023-04-05T03:14:16;99012.69;;;5.25;93.08
7109;BME280;29079;41.930;25.558;2023-04-05T03:16:50;99013.59;;;5.48;91.52
7109;BME280;29079;41.930;25.558;2023-04-05T03:19:24;99019.94;;;5.10;91.85
7109;BME280;29079;41.930;25.558;2023-04-05T03:21:58;99021.66;;;5.57;96.32
7109;BME280;29079;41.930;25.558;2023-04-05T03:24:31;99024.94;;;5.61;93.10
7109;BME280;29079;41.930;25.558;2023-04-05T03:27:04;99027.19;;;5.54;93.37
7109;BME280;29079;41.930;25.558;2023-04-05T03:29:40;99016.47;;;5.56;92.72
7109;BME280;29079;41.930;25.558;2023-04-05T03:32:15;99023.50;;;5.21;91.76
7109;BME280;29079;41.930;25.558;2023-04-05T03:34:52;99025.84;;;5.37;93.10
7109;BME280;29079;41.930;25.558;2023-04-05T03:37:26;99027.16;;;5.43;94.64
7109;BME280;29079;41.930;25.558;2023-04-05T03:40:01;99025.16;;;5.22;94.17
7109;BME280;29079;41.930;25.558;2023-04-05T03:42:38;99028.63;;;5.12;92.80
7109;BME280;29079;41.930;25.558;2023-04-05T03:45:14;99028.50;;;5.13;92.78
7109;BME280;29079;41.930;25.558;2023-04-05T03:47:56;99029.97;;;5.17;91.94
7109;BME280;29079;41.930;25.558;2023-04-05T03:50:31;99022.19;;;5.27;90.50
7109;BME280;29079;41.930;25.558;2023-04-05T03:53:04;99037.97;;;5.04;91.14
7109;BME280;29079;41.930;25.558;2023-04-05T03:55:37;99038.06;;;4.79;91.44
7109;BME280;29079;41.930;25.558;2023-04-05T03:58:11;99042.31;;;5.05;91.20
7109;BME280;29079;41.930;25.558;2023-04-05T04:00:44;99046.00;;;5.03;90.95
7109;BME280;29079;41.930;25.558;2023-04-05T04:03:18;99046.84;;;5.03;91.02
7109;BME280;29079;41.930;25.558;2023-04-05T04:05:52;99048.38;;;4.95;91.21
7109;BME280;29079;41.930;25.558;2023-04-05T04:08:26;99044.56;;;5.34;90.47
7109;BME280;29079;41.930;25.558;2023-04-05T04:10:59;99053.16;;;5.14;92.40
7109;BME280;29079;41.930;25.558;2023-04-05T04:13:35;99051.13;;;5.17;92.14
7109;BME280;29079;41.930;25.558;2023-04-05T04:16:09;99062.31;;;5.45;93.45
7109;BME280;29079;41.930;25.558;2023-04-05T04:18:42;99052.31;;;5.13;90.67
7109;BME280;29079;41.930;25.558;2023-04-05T04:21:16;99063.72;;;5.14;92.71
7109;BME280;29079;41.930;25.558;2023-04-05T04:23:49;99062.13;;;5.00;90.45
7109;BME280;29079;41.930;25.558;2023-04-05T04:26:24;99064.13;;;4.96;89.86
7109;BME280;29079;41.930;25.558;2023-04-05T04:29:00;99070.25;;;5.21;90.07
7109;BME280;29079;41.930;25.558;2023-04-05T04:31:34;99067.09;;;4.92;90.38
7109;BME280;29079;41.930;25.558;2023-04-05T04:34:09;99063.47;;;5.05;90.29
7109;BME280;29079;41.930;25.558;2023-04-05T04:36:44;99066.88;;;5.19;91.18
7109;BME280;29079;41.930;25.558;2023-04-05T04:39:19;99073.59;;;5.12;91.73
7109;BME280;29079;41.930;25.558;2023-04-05T04:41:57;99076.84;;;5.15;89.38
7109;BME280;29079;41.930;25.558;2023-04-05T04:44:32;99094.19;;;5.19;89.80
7109;BME280;29079;41.930;25.558;2023-04-05T04:47:04;99084.06;;;5.37;89.41
7109;BME280;29079;41.930;25.558;2023-04-05T04:49:45;99085.78;;;5.26;89.06
7109;BME280;29079;41.930;25.558;2023-04-05T04:52:20;99084.31;;;4.97;87.46
7109;BME280;29079;41.930;25.558;2023-04-05T04:54:53;99092.19;;;5.34;90.70
7109;BME280;29079;41.930;25.558;2023-04-05T04:57:26;99088.66;;;5.22;88.46
7109;BME280;29079;41.930;25.558;2023-04-05T04:59:59;99093.66;;;5.38;90.46
7109;BME280;29079;41.930;25.558;2023-04-05T05:02:33;99096.66;;;5.34;86.80
7109;BME280;29079;41.930;25.558;2023-04-05T05:05:06;99098.56;;;5.08;85.64
7109;BME280;29079;41.930;25.558;2023-04-05T05:07:41;99091.16;;;5.13;86.78
7109;BME280;29079;41.930;25.558;2023-04-05T05:10:14;99094.13;;;5.32;87.54
7109;BME280;29079;41.930;25.558;2023-04-05T05:12:48;99095.25;;;5.41;87.95
7109;BME280;29079;41.930;25.558;2023-04-05T05:15:22;99098.13;;;5.38;85.99
7109;BME280;29079;41.930;25.558;2023-04-05T05:17:56;99109.06;;;5.69;86.51
7109;BME280;29079;41.930;25.558;2023-04-05T05:20:29;99102.09;;;5.68;85.21
7109;BME280;29079;41.930;25.558;2023-04-05T05:23:04;99101.34;;;5.30;84.93
7109;BME280;29079;41.930;25.558;2023-04-05T05:25:37;99100.75;;;5.38;84.85
7109;BME280;29079;41.930;25.558;2023-04-05T05:28:10;99098.28;;;5.48;85.68
7109;BME280;29079;41.930;25.558;2023-04-05T05:30:44;99107.63;;;5.40;84.71
7109;BME280;29079;41.930;25.558;2023-04-05T05:33:17;99103.84;;;5.56;87.62
7109;BME280;29079;41.930;25.558;2023-04-05T05:35:51;99100.94;;;5.48;83.08
7109;BME280;29079;41.930;25.558;2023-04-05T05:38:25;99094.66;;;5.49;82.79
7109;BME280;29079;41.930;25.558;2023-04-05T05:40:58;99103.84;;;5.56;82.44
7109;BME280;29079;41.930;25.558;2023-04-05T05:43:32;99105.72;;;5.43;82.57
7109;BME280;29079;41.930;25.558;2023-04-05T05:46:05;99111.22;;;5.39;84.57
7109;BME280;29079;41.930;25.558;2023-04-05T05:48:39;99109.00;;;5.46;82.81
7109;BME280;29079;41.930;25.558;2023-04-05T05:51:12;99114.53;;;5.54;82.56
7109;BME280;29079;41.930;25.558;2023-04-05T05:53:46;99111.94;;;5.41;84.02
7109;BME280;29079;41.930;25.558;2023-04-05T05:56:19;99110.75;;;5.70;83.28
7109;BME280;29079;41.930;25.558;2023-04-05T05:58:52;99120.31;;;5.95;82.73
7109;BME280;29079;41.930;25.558;2023-04-05T06:01:26;99117.00;;;5.69;82.22
7109;BME280;29079;41.930;25.558;2023-04-05T06:04:00;99117.88;;;5.81;83.66
7109;BME280;29079;41.930;25.558;2023-04-05T06:06:33;99125.44;;;5.74;82.29
7109;BME280;29079;41.930;25.558;2023-04-05T06:09:10;99120.28;;;5.84;81.76
7109;BME280;29079;41.930;25.558;2023-04-05T06:11:44;99132.53;;;5.73;81.79
7109;BME280;29079;41.930;25.558;2023-04-05T06:14:27;99131.53;;;5.63;83.26
7109;BME280;29079;41.930;25.558;2023-04-05T06:17:01;99131.34;;;5.78;82.55
7109;BME280;29079;41.930;25.558;2023-04-05T06:19:35;99130.19;;;5.93;81.64
7109;BME280;29079;41.930;25.558;2023-04-05T06:22:08;99125.38;;;5.87;80.85
7109;BME280;29079;41.930;25.558;2023-04-05T06:24:42;99138.16;;;5.93;82.01
7109;BME280;29079;41.930;25.558;2023-04-05T06:27:15;99138.31;;;6.03;82.30
7109;BME280;29079;41.930;25.558;2023-04-05T06:29:49;99147.00;;;5.81;82.92
7109;BME280;29079;41.930;25.558;2023-04-05T06:32:22;99139.91;;;5.81;82.51
7109;BME280;29079;41.930;25.558;2023-04-05T06:34:55;99146.75;;;6.08;83.21
7109;BME280;29079;41.930;25.558;2023-04-05T06:37:31;99146.03;;;6.06;82.59
7109;BME280;29079;41.930;25.558;2023-04-05T06:40:07;99153.63;;;6.10;83.85
7109;BME280;29079;41.930;25.558;2023-04-05T06:42:40;99153.50;;;6.12;83.06
7109;BME280;29079;41.930;25.558;2023-04-05T06:45:13;99156.28;;;6.10;81.37
7109;BME280;29079;41.930;25.558;2023-04-05T06:47:47;99156.53;;;6.19;80.68
7109;BME280;29079;41.930;25.558;2023-04-05T06:50:21;99156.03;;;6.14;80.35
7109;BME280;29079;41.930;25.558;2023-04-05T06:52:54;99160.44;;;6.60;86.69
7109;BME280;29079;41.930;25.558;2023-04-05T06:55:29;99157.41;;;6.65;82.61
7109;BME280;29079;41.930;25.558;2023-04-05T06:58:02;99164.53;;;6.98;81.90
7109;BME280;29079;41.930;25.558;2023-04-05T07:00:35;99164.56;;;6.75;79.70
7109;BME280;29079;41.930;25.558;2023-04-05T07:03:08;99167.69;;;6.58;79.59
7109;BME280;29079;41.930;25.558;2023-04-05T07:05:48;99173.94;;;6.57;81.96
7109;BME280;29079;41.930;25.558;2023-04-05T07:08:21;99168.41;;;6.71;80.55
7109;BME280;29079;41.930;25.558;2023-04-05T07:10:57;99176.84;;;6.65;80.82
7109;BME280;29079;41.930;25.558;2023-04-05T07:13:30;99183.09;;;6.87;79.47
7109;BME280;29079;41.930;25.558;2023-04-05T07:16:04;99185.97;;;7.06;80.06
7109;BME280;29079;41.930;25.558;2023-04-05T07:18:38;99188.06;;;6.80;79.47
7109;BME280;29079;41.930;25.558;2023-04-05T07:21:11;99184.78;;;6.88;77.28
7109;BME280;29079;41.930;25.558;2023-04-05T07:23:44;99185.63;;;6.88;78.99
7109;BME280;29079;41.930;25.558;2023-04-05T07:26:19;99193.06;;;7.17;78.46
7109;BME280;29079;41.930;25.558;2023-04-05T07:28:53;99194.06;;;7.05;76.29
7109;BME280;29079;41.930;25.558;2023-04-05T07:31:26;99189.59;;;6.94;75.77
7109;BME280;29079;41.930;25.558;2023-04-05T07:33:59;99201.91;;;7.18;80.62
7109;BME280;29079;41.930;25.558;2023-04-05T07:36:33;99197.69;;;6.92;75.72
7109;BME280;29079;41.930;25.558;2023-04-05T07:39:08;99200.13;;;6.84;75.76
7109;BME280;29079;41.930;25.558;2023-04-05T07:41:42;99205.28;;;6.74;76.26
7109;BME280;29079;41.930;25.558;2023-04-05T07:44:16;99208.19;;;6.83;75.60
7109;BME280;29079;41.930;25.558;2023-04-05T07:46:49;99214.34;;;6.83;75.64
7109;BME280;29079;41.930;25.558;2023-04-05T07:49:25;99217.09;;;6.70;75.39
7109;BME280;29079;41.930;25.558;2023-04-05T07:51:58;99220.84;;;6.79;74.11
7109;BME280;29079;41.930;25.558;2023-04-05T07:54:34;99211.41;;;6.63;74.25
7109;BME280;29079;41.930;25.558;2023-04-05T07:57:16;99215.78;;;6.76;74.11
7109;BME280;29079;41.930;25.558;2023-04-05T07:59:49;99214.78;;;6.88;77.44
7109;BME280;29079;41.930;25.558;2023-04-05T08:02:23;99214.94;;;6.75;73.65
7109;BME280;29079;41.930;25.558;2023-04-05T08:04:56;99207.94;;;6.86;74.36
7109;BME280;29079;41.930;25.558;2023-04-05T08:07:31;99213.13;;;6.76;73.81
7109;BME280;29079;41.930;25.558;2023-04-05T08:10:04;99207.09;;;6.85;74.69
7109;BME280;29079;41.930;25.558;2023-04-05T08:12:39;99208.66;;;6.99;76.76
7109;BME280;29079;41.930;25.558;2023-04-05T08:15:12;99207.66;;;7.11;74.89
7109;BME280;29079;41.930;25.558;2023-04-05T08:17:45;99213.97;;;6.99;73.78
7109;BME280;29079;41.930;25.558;2023-04-05T08:20:18;99211.81;;;6.82;74.22
7109;BME280;29079;41.930;25.558;2023-04-05T08:22:52;99211.91;;;7.14;73.89
7109;BME280;29079;41.930;25.558;2023-04-05T08:25:25;99212.97;;;7.34;74.46
7109;BME280;29079;41.930;25.558;2023-04-05T08:27:59;99219.25;;;7.22;71.67
7109;BME280;29079;41.930;25.558;2023-04-05T08:30:32;99219.38;;;7.20;71.74
7109;BME280;29079;41.930;25.558;2023-04-05T08:33:06;99212.41;;;7.63;77.59
7109;BME280;29079;41.930;25.558;2023-04-05T08:35:39;99225.59;;;7.53;72.65
7109;BME280;29079;41.930;25.558;2023-04-05T08:38:14;99222.38;;;7.38;74.29
7109;BME280;29079;41.930;25.558;2023-04-05T08:40:47;99224.97;;;7.61;74.96
7109;BME280;29079;41.930;25.558;2023-04-05T08:43:24;99225.31;;;7.67;73.92
7109;BME280;29079;41.930;25.558;2023-04-05T08:46:00;99229.47;;;7.49;74.13
7109;BME280;29079;41.930;25.558;2023-04-05T08:48:34;99223.97;;;7.29;72.46
7109;BME280;29079;41.930;25.558;2023-04-05T08:51:10;99228.38;;;7.40;73.76
7109;BME280;29079;41.930;25.558;2023-04-05T08:53:43;99228.41;;;8.16;77.98
7109;BME280;29079;41.930;25.558;2023-04-05T08:56:17;99233.91;;;8.04;73.92
7109;BME280;29079;41.930;25.558;2023-04-05T08:58:56;99237.59;;;7.80;73.09
7109;BME280;29079;41.930;25.558;2023-04-05T09:01:35;99245.22;;;7.73;73.37
7109;BME280;29079;41.930;25.558;2023-04-05T09:04:10;99243.88;;;8.11;74.50
7109;BME280;29079;41.930;25.558;2023-04-05T09:06:44;99249.78;;;7.82;73.14
7109;BME280;29079;41.930;25.558;2023-04-05T09:09:17;99249.09;;;7.69;73.10
7109;BME280;29079;41.930;25.558;2023-04-05T09:11:56;99254.63;;;7.89;73.17
7109;BME280;29079;41.930;25.558;2023-04-05T09:14:31;99248.75;;;8.27;79.12
7109;BME280;29079;41.930;25.558;2023-04-05T09:17:05;99252.75;;;8.00;70.99
7109;BME280;29079;41.930;25.558;2023-04-05T09:19:38;99252.09;;;7.76;74.13
7109;BME280;29079;41.930;25.558;2023-04-05T09:22:12;99258.94;;;7.90;73.19
7109;BME280;29079;41.930;25.558;2023-04-05T09:24:49;99249.72;;;8.59;77.67
7109;BME280;29079;41.930;25.558;2023-04-05T09:27:22;99253.56;;;8.33;73.91
7109;BME280;29079;41.930;25.558;2023-04-05T09:29:56;99261.66;;;8.32;74.50
7109;BME280;29079;41.930;25.558;2023-04-05T09:32:29;99255.50;;;8.31;80.17
7109;BME280;29079;41.930;25.558;2023-04-05T09:35:03;99261.00;;;7.86;72.55
7109;BME280;29079;41.930;25.558;2023-04-05T09:37:37;99258.91;;;8.01;74.10
7109;BME280;29079;41.930;25.558;2023-04-05T09:40:23;99254.41;;;7.69;73.63
7109;BME280;29079;41.930;25.558;2023-04-05T09:42:57;99266.66;;;7.93;73.15
7109;BME280;29079;41.930;25.558;2023-04-05T09:45:32;99260.88;;;8.20;75.36
7109;BME280;29079;41.930;25.558;2023-04-05T09:48:10;99257.81;;;8.25;73.48
7109;BME280;29079;41.930;25.558;2023-04-05T09:50:44;99257.91;;;8.13;76.67
7109;BME280;29079;41.930;25.558;2023-04-05T09:53:17;99257.25;;;8.21;73.15
7109;BME280;29079;41.930;25.558;2023-04-05T09:55:50;99260.34;;;8.05;73.87
7109;BME280;29079;41.930;25.558;2023-04-05T09:58:23;99255.53;;;7.99;74.49
7109;BME280;29079;41.930;25.558;2023-04-05T10:00:58;99255.81;;;7.84;74.62
7109;BME280;29079;41.930;25.558;2023-04-05T10:03:47;99254.84;;;8.18;77.71
7109;BME280;29079;41.930;25.558;2023-04-05T10:06:21;99257.63;;;8.16;74.47
7109;BME280;29079;41.930;25.558;2023-04-05T10:08:54;99257.81;;;8.04;75.16
7109;BME280;29079;41.930;25.558;2023-04-05T10:11:27;99257.03;;;7.80;74.40
7109;BME280;29079;41.930;25.558;2023-04-05T10:14:02;99260.06;;;7.76;75.13
7109;BME280;29079;41.930;25.558;2023-04-05T10:16:37;99260.88;;;7.88;77.48
7109;BME280;29079;41.930;25.558;2023-04-05T10:19:25;99267.03;;;7.88;76.63
7109;BME280;29079;41.930;25.558;2023-04-05T10:22:01;99265.03;;;7.69;74.37
7109;BME280;29079;41.930;25.558;2023-04-05T10:24:37;99271.03;;;7.82;74.85
7109;BME280;29079;41.930;25.558;2023-04-05T10:27:15;99270.56;;;7.77;75.01
7109;BME280;29079;41.930;25.558;2023-04-05T10:29:50;99269.00;;;7.75;73.60
7109;BME280;29079;41.930;25.558;2023-04-05T10:32:27;99265.03;;;7.69;73.69
7109;BME280;29079;41.930;25.558;2023-04-05T10:35:04;99271.81;;;7.62;73.10
7109;BME280;29079;41.930;25.558;2023-04-05T10:37:40;99276.06;;;7.97;75.06
7109;BME280;29079;41.930;25.558;2023-04-05T10:40:19;99265.63;;;8.16;76.13
7109;BME280;29079;41.930;25.558;2023-04-05T10:42:53;99274.25;;;8.30;77.36
7109;BME280;29079;41.930;25.558;2023-04-05T10:45:26;99273.00;;;8.45;80.60
7109;BME280;29079;41.930;25.558;2023-04-05T10:48:03;99272.81;;;8.26;73.55
7109;BME280;29079;41.930;25.558;2023-04-05T10:50:37;99266.56;;;8.15;74.15
7109;BME280;29079;41.930;25.558;2023-04-05T10:53:12;99277.28;;;8.25;71.69
7109;BME280;29079;41.930;25.558;2023-04-05T10:55:45;99274.28;;;7.97;72.09
7109;BME280;29079;41.930;25.558;2023-04-05T10:58:18;99268.59;;;8.56;80.80
7109;BME280;29079;41.930;25.558;2023-04-05T11:00:52;99270.66;;;8.19;71.36
7109;BME280;29079;41.930;25.558;2023-04-05T11:03:45;99268.53;;;8.46;76.78
7109;BME280;29079;41.930;25.558;2023-04-05T11:06:20;99270.44;;;8.44;73.96
7109;BME280;29079;41.930;25.558;2023-04-05T11:08:54;99275.44;;;8.37;71.37
7109;BME280;29079;41.930;25.558;2023-04-05T11:11:27;99280.78;;;8.05;73.90
7109;BME280;29079;41.930;25.558;2023-04-05T11:14:17;99276.31;;;7.94;76.68
7109;BME280;29079;41.930;25.558;2023-04-05T11:16:51;99274.41;;;7.84;75.24
7109;BME280;29079;41.930;25.558;2023-04-05T11:22:26;99281.38;;;7.42;79.74
7109;BME280;29079;41.930;25.558;2023-04-05T11:25:00;99281.34;;;7.53;82.10
7109;BME280;29079;41.930;25.558;2023-04-05T11:27:35;99282.81;;;7.57;84.10
7109;BME280;29079;41.930;25.558;2023-04-05T11:30:10;99281.28;;;7.32;83.35
7109;BME280;29079;41.930;25.558;2023-04-05T11:32:43;99284.28;;;7.05;84.35
7109;BME280;29079;41.930;25.558;2023-04-05T11:35:17;99278.38;;;7.12;84.07
7109;BME280;29079;41.930;25.558;2023-04-05T11:38:04;99281.41;;;7.30;87.03
7109;BME280;29079;41.930;25.558;2023-04-05T11:40:38;99279.31;;;7.34;84.76
7109;BME280;29079;41.930;25.558;2023-04-05T11:43:14;99276.56;;;7.36;85.29
7109;BME280;29079;41.930;25.558;2023-04-05T11:45:47;99274.63;;;7.26;84.41
7109;BME280;29079;41.930;25.558;2023-04-05T11:48:22;99270.88;;;7.29;86.65
7109;BME280;29079;41.930;25.558;2023-04-05T11:50:57;99264.28;;;7.78;87.87
7109;BME280;29079;41.930;25.558;2023-04-05T11:53:31;99268.59;;;7.91;88.03
7109;BME280;29079;41.930;25.558;2023-04-05T11:56:08;99266.72;;;7.70;84.15
7109;BME280;29079;41.930;25.558;2023-04-05T11:58:43;99267.25;;;7.41;84.09
7109;BME280;29079;41.930;25.558;2023-04-05T12:01:16;99263.38;;;7.57;85.27
7109;BME280;29079;41.930;25.558;2023-04-05T12:03:53;99270.00;;;7.62;82.20
7109;BME280;29079;41.930;25.558;2023-04-05T12:06:27;99266.25;;;7.54;84.51
7109;BME280;29079;41.930;25.558;2023-04-05T12:09:01;99253.72;;;7.56;84.21
7109;BME280;29079;41.930;25.558;2023-04-05T12:11:39;99258.38;;;7.75;83.03
7109;BME280;29079;41.930;25.558;2023-04-05T12:14:13;99255.16;;;7.71;84.46
7109;BME280;29079;41.930;25.558;2023-04-05T12:16:47;99249.44;;;7.76;82.66
7109;BME280;29079;41.930;25.558;2023-04-05T12:19:21;99248.59;;;7.75;81.56
7109;BME280;29079;41.930;25.558;2023-04-05T12:21:54;99254.81;;;7.97;82.43
7109;BME280;29079;41.930;25.558;2023-04-05T12:24:29;99250.97;;;7.90;82.23
7109;BME280;29079;41.930;25.558;2023-04-05T12:27:02;99251.22;;;7.87;83.16
7109;BME280;29079;41.930;25.558;2023-04-05T12:29:35;99252.16;;;7.97;82.48
7109;BME280;29079;41.930;25.558;2023-04-05T12:32:08;99251.81;;;7.90;80.15
7109;BME280;29079;41.930;25.558;2023-04-05T12:34:46;99250.00;;;7.91;77.55
7109;BME280;29079;41.930;25.558;2023-04-05T12:37:19;99250.25;;;7.88;77.57
7109;BME280;29079;41.930;25.558;2023-04-05T12:39:54;99246.06;;;7.74;76.49
7109;BME280;29079;41.930;25.558;2023-04-05T12:42:29;99245.66;;;7.90;78.10
7109;BME280;29079;41.930;25.558;2023-04-05T12:45:04;99252.78;;;8.22;81.35
7109;BME280;29079;41.930;25.558;2023-04-05T12:47:48;99255.69;;;8.18;79.74
7109;BME280;29079;41.930;25.558;2023-04-05T12:50:24;99254.72;;;8.19;77.88
7109;BME280;29079;41.930;25.558;2023-04-05T12:52:59;99253.72;;;7.99;77.58
7109;BME280;29079;41.930;25.558;2023-04-05T12:55:37;99252.16;;;7.97;77.70
7109;BME280;29079;41.930;25.558;2023-04-05T12:58:14;99255.03;;;8.05;77.38
7109;BME280;29079;41.930;25.558;2023-04-05T13:00:48;99255.16;;;8.04;76.60
7109;BME280;29079;41.930;25.558;2023-04-05T13:03:22;99255.03;;;8.05;75.30
7109;BME280;29079;41.930;25.558;2023-04-05T13:05:57;99252.94;;;8.09;76.27
7109;BME280;29079;41.930;25.558;2023-04-05T13:08:30;99248.53;;;7.98;74.96
7109;BME280;29079;41.930;25.558;2023-04-05T13:11:05;99258.13;;;8.10;75.05
7109;BME280;29079;41.930;25.558;2023-04-05T13:13:41;99254.03;;;8.39;77.69
7109;BME280;29079;41.930;25.558;2023-04-05T13:16:14;99249.78;;;8.36;76.28
7109;BME280;29079;41.930;25.558;2023-04-05T13:18:47;99257.81;;;8.04;74.51
7109;BME280;29079;41.930;25.558;2023-04-05T13:21:21;99259.69;;;8.13;75.22
7109;BME280;29079;41.930;25.558;2023-04-05T13:23:54;99260.69;;;8.12;74.00
7109;BME280;29079;41.930;25.558;2023-04-05T13:26:28;99261.56;;;8.01;75.18
7109;BME280;29079;41.930;25.558;2023-04-05T13:29:01;99259.66;;;8.24;74.84
7109;BME280;29079;41.930;25.558;2023-04-05T13:31:34;99267.09;;;8.09;74.08
7109;BME280;29079;41.930;25.558;2023-04-05T13:34:08;99269.72;;;8.21;75.22
7109;BME280;29079;41.930;25.558;2023-04-05T13:36:41;99267.06;;;8.21;74.27
7109;BME280;29079;41.930;25.558;2023-04-05T13:39:14;99272.22;;;7.90;74.72
7109;BME280;29079;41.930;25.558;2023-04-05T13:41:48;99270.13;;;8.05;74.25
7109;BME280;29079;41.930;25.558;2023-04-05T13:44:21;99275.09;;;7.98;74.37
7109;BME280;29079;41.930;25.558;2023-04-05T13:46:55;99276.06;;;7.97;74.32
7109;BME280;29079;41.930;25.558;2023-04-05T13:49:28;99280.91;;;8.03;74.65
7109;BME280;29079;41.930;25.558;2023-04-05T13:52:01;99280.03;;;8.02;73.83
7109;BME280;29079;41.930;25.558;2023-04-05T13:54:34;99284.44;;;7.81;73.50